Time;durP1;ratioP1;P1;durP2;ratioP2;P2;SDS_P1;SDS_P2;PMS_P1;PMS_P2;Temp;Humidity;BMP_temperature;BMP_pressure;BME280_temperature;BME280_humidity;BME280_pressure;Samples;Min_cycle;Max_cycle;Signal;HPM_P1;HPM_P2
2022/05/31 00:01:12;;;;;;;10.50;4.50;;;;;;;23.20;59.96;99355.94;5072350;28;20296;-67
2022/05/31 00:03:40;;;;;;;9.17;4.87;;;;;;;23.34;59.41;99364.28;5072489;28;20243;-68
2022/05/31 00:06:08;;;;;;;5.50;4.93;;;;;;;23.36;59.72;99359.38;5072840;28;20190;-68
2022/05/31 00:08:34;;;;;;;5.17;4.77;;;;;;;23.42;59.55;99361.78;5072634;28;20201;-68
2022/05/31 00:11:02;;;;;;;6.10;4.87;;;;;;;23.40;59.65;99363.94;5072378;28;20280;-68
2022/05/31 00:13:29;;;;;;;9.40;5.20;;;;;;;23.36;60.21;99364.81;5071742;28;20569;-68
2022/05/31 00:15:56;;;;;;;6.10;5.07;;;;;;;23.22;61.22;99359.19;5071678;28;20195;-67
2022/05/31 00:18:23;;;;;;;5.63;5.13;;;;;;;23.23;61.89;99363.53;5072100;28;20251;-67
2022/05/31 00:20:51;;;;;;;6.07;5.33;;;;;;;23.24;61.65;99365.13;5072204;28;20198;-67
2022/05/31 00:23:18;;;;;;;6.17;5.17;;;;;;;23.17;61.39;99359.22;5071592;28;20198;-67
2022/05/31 00:25:45;;;;;;;6.13;4.70;;;;;;;23.14;62.76;99365.19;5071892;28;20247;-67
2022/05/31 00:28:12;;;;;;;5.97;5.33;;;;;;;23.26;62.45;99367.56;5071480;28;20360;-67
2022/05/31 00:30:40;;;;;;;7.37;4.87;;;;;;;23.36;61.43;99379.16;5071786;28;20237;-67
2022/05/31 00:33:10;;;;;;;8.00;4.63;;;;;;;23.45;61.43;99382.09;5071654;28;20194;-68
2022/05/31 00:35:41;;;;;;;9.27;5.13;;;;;;;23.52;60.51;99383.38;5072262;28;20226;-67
2022/05/31 00:38:10;;;;;;;5.77;4.43;;;;;;;23.51;60.38;99378.25;5071491;28;20202;-67
2022/05/31 00:40:38;;;;;;;5.40;5.10;;;;;;;23.44;60.96;99381.28;5072020;28;20202;-67
2022/05/31 00:43:08;;;;;;;5.50;4.60;;;;;;;23.37;61.04;99380.81;5071832;28;20194;-67
2022/05/31 00:45:39;;;;;;;5.40;4.90;;;;;;;23.31;61.61;99381.91;5072028;28;20198;-67
2022/05/31 00:48:11;;;;;;;8.37;4.80;;;;;;;23.24;61.98;99375.97;5071584;28;20243;-69
2022/05/31 00:50:49;;;;;;;8.03;7.27;;;;;;;23.13;62.61;99381.72;5071629;28;20283;-68
2022/05/31 00:53:22;;;;;;;14.17;8.03;;;;;;;23.03;63.75;99374.47;5071799;28;20614;-68
2022/05/31 00:55:52;;;;;;;14.77;9.80;;;;;;;22.95;64.07;99383.16;5071096;28;20542;-68
2022/05/31 00:58:22;;;;;;;12.43;6.13;;;;;;;22.90;65.07;99380.50;5071792;28;20258;-67
2022/05/31 01:00:50;;;;;;;6.73;5.83;;;;;;;22.60;65.29;99345.44;5071834;28;20626;-67
2022/05/31 01:03:20;;;;;;;7.53;5.40;;;;;;;22.72;66.16;99375.72;5072405;28;20193;-67
2022/05/31 01:05:47;;;;;;;10.57;6.57;;;;;;;22.70;66.33;99372.44;5072014;28;20768;-68
2022/05/31 01:08:14;;;;;;;8.07;5.90;;;;;;;22.65;66.98;99369.78;5071867;28;20543;-68
2022/05/31 01:10:43;;;;;;;8.07;5.93;;;;;;;22.68;66.45;99377.34;5072015;28;20196;-68
2022/05/31 01:13:11;;;;;;;10.57;6.50;;;;;;;22.62;67.05;99370.31;5071994;28;20197;-68
2022/05/31 01:15:38;;;;;;;8.00;5.40;;;;;;;22.56;67.57;99368.72;5072316;28;20266;-68
2022/05/31 01:18:06;;;;;;;7.47;6.33;;;;;;;22.46;68.03;99363.34;5071905;28;20245;-68
2022/05/31 01:20:34;;;;;;;10.43;6.93;;;;;;;22.27;69.05;99365.00;5071742;28;20252;-68
2022/05/31 01:23:06;;;;;;;6.57;5.73;;;;;;;22.18;70.05;99366.66;5072525;28;20250;-68
2022/05/31 01:26:01;;;;;;;12.10;6.37;;;;;;;22.23;68.95;99369.34;5072211;28;20184;-68
2022/05/31 01:28:52;;;;;;;7.70;6.90;;;;;;;22.20;69.46;99369.88;5071980;28;20196;-68
2022/05/31 01:31:23;;;;;;;12.30;7.07;;;;;;;22.08;71.03;99372.06;5071796;28;20269;-68
2022/05/31 01:33:54;;;;;;;13.03;8.03;;;;;;;22.06;70.10;99374.25;5071855;28;20180;-68
2022/05/31 01:36:28;;;;;;;12.53;6.83;;;;;;;22.07;70.22;99375.88;5071989;28;20257;-67
2022/05/31 01:39:01;;;;;;;19.03;7.20;;;;;;;22.10;69.73;99369.91;5071766;28;20193;-68
2022/05/31 01:41:35;;;;;;;12.70;7.30;;;;;;;22.02;69.39;99373.16;5071928;28;20196;-68
2022/05/31 01:44:05;;;;;;;10.27;5.93;;;;;;;21.87;69.90;99370.47;5072736;28;20183;-68
2022/05/31 01:46:35;;;;;;;7.37;6.60;;;;;;;21.83;71.31;99374.81;5072113;28;20188;-68
2022/05/31 01:49:04;;;;;;;9.63;6.80;;;;;;;21.87;70.33;99381.28;5071758;28;20192;-68
2022/05/31 01:51:32;;;;;;;8.43;6.30;;;;;;;21.93;69.91;99391.00;5075286;28;20220;-67
2022/05/31 01:53:59;;;;;;;7.27;5.77;;;;;;;21.99;69.58;99395.34;5075821;28;20196;-67
2022/05/31 01:56:26;;;;;;;11.03;6.53;;;;;;;22.11;68.85;99404.00;5075537;28;20192;-68
2022/05/31 01:58:55;;;;;;;10.40;6.57;;;;;;;22.24;68.98;99414.25;5075478;28;20729;-68
2022/05/31 02:01:23;;;;;;;10.27;5.67;;;;;;;22.44;67.71;99410.69;5075405;28;20197;-68
2022/05/31 02:03:50;;;;;;;9.93;6.17;;;;;;;22.54;66.57;99408.78;5075541;28;20188;-68
2022/05/31 02:06:26;;;;;;;11.60;5.80;;;;;;;22.52;66.53;99408.28;5076275;28;20217;-68
2022/05/31 02:08:54;;;;;;;15.40;5.83;;;;;;;22.50;67.16;99413.13;5075685;28;20241;-68
2022/05/31 02:11:21;;;;;;;13.20;5.90;;;;;;;22.62;66.25;99421.75;5075226;28;20285;-68
2022/05/31 02:13:48;;;;;;;14.93;6.77;;;;;;;22.73;65.97;99433.38;5075822;28;20192;-68
2022/05/31 02:16:15;;;;;;;8.97;5.60;;;;;;;22.79;65.93;99422.25;5075244;28;20677;-68
2022/05/31 02:21:35;;;;;;;10.23;5.33;;;;;;;22.95;65.18;99441.97;5075132;28;20187;-67
2022/05/31 02:24:04;;;;;;;7.50;5.07;;;;;;;23.03;63.88;99444.13;5075110;28;20190;-67
2022/05/31 02:26:31;;;;;;;8.80;5.50;;;;;;;23.03;64.74;99444.13;5074919;28;20251;-67
2022/05/31 02:28:58;;;;;;;9.83;5.27;;;;;;;23.03;64.10;99444.91;5075379;28;20198;-67
2022/05/31 02:31:24;;;;;;;6.57;5.50;;;;;;;22.85;63.93;99452.84;5075028;28;20658;-68
2022/05/31 02:33:51;;;;;;;7.77;5.90;;;;;;;22.69;64.35;99456.69;5075159;28;20200;-68
2022/05/31 02:36:18;;;;;;;10.30;5.67;;;;;;;22.57;64.55;99451.56;5074796;28;20249;-68
2022/05/31 02:38:45;;;;;;;10.07;5.70;;;;;;;22.46;64.91;99455.38;5075162;28;20273;-68
2022/05/31 02:41:13;;;;;;;7.67;5.87;;;;;;;22.37;64.92;99456.19;5075108;28;20261;-68
2022/05/31 02:43:39;;;;;;;8.93;5.73;;;;;;;22.27;65.13;99454.31;5074815;28;20217;-68
2022/05/31 02:46:06;;;;;;;10.33;5.07;;;;;;;22.23;65.99;99455.94;5074630;28;20196;-68
2022/05/31 02:48:33;;;;;;;6.63;5.90;;;;;;;22.28;64.50;99466.75;5074292;28;20196;-67
2022/05/31 02:51:00;;;;;;;5.90;5.33;;;;;;;22.14;64.57;99463.00;5074629;28;20227;-67
2022/05/31 02:53:29;;;;;;;9.47;6.07;;;;;;;21.98;64.89;99458.66;5075169;28;20281;-68
2022/05/31 02:55:55;;;;;;;9.23;5.20;;;;;;;21.81;65.75;99463.50;5074503;28;20200;-68
2022/05/31 02:58:25;;;;;;;7.97;5.70;;;;;;;21.66;66.04;99466.16;5074753;28;20223;-68
2022/05/31 03:00:52;;;;;;;9.37;5.33;;;;;;;21.58;66.32;99464.00;5074252;28;20188;-68
2022/05/31 03:03:19;;;;;;;10.30;5.90;;;;;;;21.54;67.13;99462.91;5074582;28;20333;-68
2022/05/31 03:05:45;;;;;;;9.40;5.77;;;;;;;21.56;67.92;99455.31;5074298;28;20282;-68
2022/05/31 03:08:13;;;;;;;14.07;6.27;;;;;;;21.73;67.84;99455.94;5074177;28;20197;-68
2022/05/31 03:10:44;;;;;;;9.07;6.43;;;;;;;21.96;67.22;99458.09;5073959;28;20222;-68
2022/05/31 03:13:12;;;;;;;10.33;5.80;;;;;;;22.06;66.69;99465.41;5074028;28;20204;-68
2022/05/31 03:15:40;;;;;;;7.40;5.90;;;;;;;22.11;66.17;99468.09;5073725;28;20230;-68
2022/05/31 03:18:11;;;;;;;12.20;6.50;;;;;;;22.10;66.47;99467.31;5073748;28;20252;-68
2022/05/31 03:20:42;;;;;;;9.73;6.37;;;;;;;22.07;66.60;99467.84;5074506;28;20274;-68
2022/05/31 03:23:14;;;;;;;8.33;7.57;;;;;;;22.09;66.81;99462.97;5074085;28;20192;-68
2022/05/31 03:25:42;;;;;;;10.90;7.83;;;;;;;22.17;66.55;99467.03;5073999;28;20184;-68
2022/05/31 03:28:11;;;;;;;18.33;7.47;;;;;;;22.17;66.65;99462.41;5073163;28;20684;-68
2022/05/31 03:30:39;;;;;;;10.17;7.30;;;;;;;22.14;67.08;99460.28;5073356;28;20660;-68
2022/05/31 03:33:08;;;;;;;8.03;7.23;;;;;;;22.11;67.87;99470.81;5073628;28;20231;-68
2022/05/31 03:35:35;;;;;;;11.57;7.73;;;;;;;22.22;66.99;99470.53;5073945;28;20257;-68
2022/05/31 03:38:01;;;;;;;9.40;7.67;;;;;;;22.33;66.90;99477.56;5073814;28;20250;-67
2022/05/31 03:43:12;;;;;;;12.93;7.43;;;;;;;22.64;65.65;99479.19;5073195;28;20611;-68
2022/05/31 03:45:44;;;;;;;8.90;8.27;;;;;;;22.65;65.67;99482.69;5073624;28;20248;-68
2022/05/31 03:48:12;;;;;;;13.60;7.13;;;;;;;22.86;66.15;99487.78;5073291;28;20185;-68
2022/05/31 03:50:40;;;;;;;16.73;7.53;;;;;;;23.21;64.44;99492.28;5073197;28;20232;-68
2022/05/31 03:53:08;;;;;;;17.03;7.80;;;;;;;23.31;63.71;99497.66;5072818;28;20788;-68
2022/05/31 03:55:37;;;;;;;24.83;8.10;;;;;;;23.25;64.19;99496.91;5073369;28;20253;-67
2022/05/31 03:58:04;;;;;;;10.27;7.27;;;;;;;23.21;65.62;99495.81;5073027;28;20578;-68
2022/05/31 04:00:31;;;;;;;9.80;6.93;;;;;;;23.26;64.78;99497.69;5073251;28;20193;-68
2022/05/31 04:03:00;;;;;;;16.40;7.40;;;;;;;23.63;64.36;99504.28;5072930;28;20200;-68
2022/05/31 04:05:27;;;;;;;17.93;6.87;;;;;;;24.59;61.56;99507.88;5073418;28;20257;-69
2022/05/31 04:07:55;;;;;;;10.87;6.33;;;;;;;25.79;57.80;99513.00;5072716;28;20646;-67
2022/05/31 04:10:23;;;;;;;7.87;4.90;;;;;;;26.90;54.20;99518.28;5073001;28;20192;-66
2022/05/31 04:12:49;;;;;;;8.53;4.87;;;;;;;27.83;51.21;99524.81;5071777;28;20224;-70
2022/05/31 04:15:16;;;;;;;6.67;6.00;;;;;;;28.63;48.97;99530.28;5072668;28;20624;-67
2022/05/31 04:17:43;;;;;;;10.23;5.80;;;;;;;29.29;46.25;99536.38;5072931;28;20192;-68
2022/05/31 04:20:12;;;;;;;11.10;5.73;;;;;;;29.81;44.48;99542.81;5072630;28;20196;-67
2022/05/31 04:22:39;;;;;;;10.07;6.13;;;;;;;30.27;43.24;99545.75;5069199;28;20207;-68
2022/05/31 04:25:06;;;;;;;7.30;5.50;;;;;;;30.70;41.98;99541.03;5072002;28;20316;-71
2022/05/31 04:27:33;;;;;;;5.73;5.17;;;;;;;31.07;40.33;99545.75;5072588;28;20565;-69
2022/05/31 04:30:00;;;;;;;12.37;6.13;;;;;;;31.47;39.58;99547.03;5072214;28;20249;-67
2022/05/31 04:32:26;;;;;;;11.03;5.90;;;;;;;31.75;38.92;99550.91;5072332;28;20707;-68
2022/05/31 04:34:54;;;;;;;9.40;5.33;;;;;;;32.16;37.85;99541.88;5072265;28;20202;-70
2022/05/31 04:37:22;;;;;;;13.13;5.17;;;;;;;32.47;36.92;99548.56;5072722;28;20242;-67
2022/05/31 04:39:49;;;;;;;13.63;6.40;;;;;;;32.72;36.23;99549.47;5072261;28;20241;-70
2022/05/31 04:42:20;;;;;;;9.90;6.20;;;;;;;33.15;35.06;99547.84;5071518;28;20264;-69
2022/05/31 04:44:46;;;;;;;7.33;6.40;;;;;;;33.69;34.66;99547.63;5070828;28;20192;-70
2022/05/31 04:47:13;;;;;;;6.83;6.23;;;;;;;33.85;34.09;99549.38;5070781;28;20616;-70
2022/05/31 04:49:40;;;;;;;8.50;6.47;;;;;;;34.06;33.85;99560.22;5068966;28;20227;-69
2022/05/31 04:52:07;;;;;;;11.03;6.30;;;;;;;34.10;33.71;99548.16;5068570;28;20668;-70
2022/05/31 04:54:35;;;;;;;16.43;6.77;;;;;;;34.33;33.60;99554.75;5071217;28;20269;-69
2022/05/31 04:57:01;;;;;;;6.37;5.40;;;;;;;34.53;32.72;99542.72;5068499;28;20188;-69
2022/05/31 04:59:29;;;;;;;8.13;5.90;;;;;;;34.29;33.29;99542.78;5070108;28;20192;-70
2022/05/31 05:01:55;;;;;;;9.10;6.17;;;;;;;34.34;33.41;99548.09;5070172;28;20191;-69
2022/05/31 05:04:22;;;;;;;12.02;5.50;;;;;;;34.59;33.08;99540.50;5070387;28;20192;-70
2022/05/31 05:06:49;;;;;;;10.10;5.30;;;;;;;34.59;32.77;99551.53;5070831;28;20563;-70
2022/05/31 05:09:17;;;;;;;7.93;4.63;;;;;;;35.26;31.82;99545.81;5068496;28;20242;-70
2022/05/31 05:11:46;;;;;;;12.07;5.05;;;;;;;35.07;31.88;99548.53;5068195;28;20672;-70
2022/05/31 05:14:13;;;;;;;8.10;5.03;;;;;;;35.24;31.37;99546.19;5070018;28;20262;-70
2022/05/31 05:16:41;;;;;;;5.97;4.60;;;;;;;35.81;30.51;99542.88;5061717;28;20239;-69
2022/05/31 05:19:09;;;;;;;28.20;6.18;;;;;;;35.69;30.89;99543.72;5048282;28;20399;-70
2022/05/31 05:21:36;;;;;;;5.10;4.70;;;;;;;35.09;31.59;99544.25;5053270;28;20632;-70
2022/05/31 05:24:02;;;;;;;5.38;4.88;;;;;;;35.25;31.43;99544.22;5068721;28;20261;-69
2022/05/31 05:26:29;;;;;;;7.22;5.25;;;;;;;35.31;32.10;99545.59;5070725;28;20579;-70
2022/05/31 05:31:42;;;;;;;9.82;3.72;;;;;;;34.99;31.91;99550.28;5069536;28;20206;-70
2022/05/31 05:34:09;;;;;;;4.82;4.32;;;;;;;35.10;32.07;99539.50;5061645;28;20211;-69
2022/05/31 05:36:36;;;;;;;4.55;4.18;;;;;;;34.94;32.16;99552.53;5065059;28;20258;-68
2022/05/31 05:39:03;;;;;;;4.65;3.95;;;;;;;34.89;32.24;99550.81;5051410;28;20254;-69
2022/05/31 05:41:31;;;;;;;7.32;4.47;;;;;;;34.83;32.32;99546.69;5060712;28;20188;-68
2022/05/31 05:43:59;;;;;;;5.50;4.82;;;;;;;35.03;32.29;99545.66;5070193;28;20269;-69
2022/05/31 05:46:28;;;;;;;6.55;4.10;;;;;;;35.08;32.36;99544.59;5069845;28;20664;-69
2022/05/31 05:48:56;;;;;;;9.45;4.55;;;;;;;35.07;32.28;99545.75;5067404;28;20241;-68
2022/05/31 05:51:25;;;;;;;10.43;5.10;;;;;;;35.33;31.85;99546.03;5049860;28;20289;-69
2022/05/31 05:53:53;;;;;;;9.07;4.88;;;;;;;35.44;31.42;99550.66;5050870;28;20307;-69
2022/05/31 05:56:20;;;;;;;8.95;4.93;;;;;;;35.33;31.54;99548.81;5050654;28;20680;-69
2022/05/31 05:58:47;;;;;;;5.88;4.50;;;;;;;35.34;31.85;99550.41;5050933;28;20254;-71
2022/05/31 06:01:23;;;;;;;11.27;4.60;;;;;;;35.38;31.68;99554.03;5050425;28;20196;-69
2022/05/31 06:03:56;;;;;;;14.48;5.40;;;;;;;35.54;31.64;99543.78;5049898;28;20189;-69
2022/05/31 06:06:25;;;;;;;6.75;4.28;;;;;;;35.46;31.65;99547.53;5055533;28;20186;-69
2022/05/31 06:08:56;;;;;;;10.05;4.88;;;;;;;35.60;31.29;99553.41;5069381;28;20199;-70
2022/05/31 06:11:26;;;;;;;5.13;4.55;;;;;;;35.38;31.23;99552.09;5071200;28;20212;-69
2022/05/31 06:13:58;;;;;;;8.10;4.30;;;;;;;35.28;31.81;99544.34;5070368;28;20215;-69
2022/05/31 06:16:32;;;;;;;8.27;4.70;;;;;;;35.37;31.97;99546.94;5070138;28;20180;-69
2022/05/31 06:19:03;;;;;;;21.83;5.45;;;;;;;35.39;31.56;99544.63;5069520;28;20188;-69
2022/05/31 06:21:30;;;;;;;6.68;3.90;;;;;;;35.38;31.67;99551.28;5069711;28;20587;-69
2022/05/31 06:23:58;;;;;;;15.07;5.07;;;;;;;35.58;30.82;99548.22;5068747;28;20715;-68
2022/05/31 06:26:25;;;;;;;34.22;5.95;;;;;;;35.52;31.51;99541.38;5069484;28;20192;-70
2022/05/31 06:28:52;;;;;;;8.30;4.80;;;;;;;35.45;31.39;99535.69;5048333;28;20200;-70
2022/05/31 06:31:18;;;;;;;9.30;4.88;;;;;;;35.55;31.09;99539.84;5053474;28;20590;-71
2022/05/31 06:33:46;;;;;;;8.10;4.85;;;;;;;35.56;30.88;99535.94;5077440;28;20219;-70
2022/05/31 06:36:14;;;;;;;5.13;3.65;;;;;;;35.46;31.53;99530.94;5071406;28;20185;-69
2022/05/31 06:38:40;;;;;;;9.77;5.22;;;;;;;35.45;31.69;99540.41;5072490;28;20192;-69
2022/05/31 06:41:07;;;;;;;10.57;4.10;;;;;;;35.33;31.12;99532.22;5072870;28;20219;-69
2022/05/31 06:43:34;;;;;;;9.38;4.68;;;;;;;35.17;31.98;99534.16;5072551;28;20199;-69
2022/05/31 06:46:04;;;;;;;19.90;6.10;;;;;;;35.15;32.15;99531.75;5072606;28;20639;-68
2022/05/31 06:48:31;;;;;;;13.93;5.07;;;;;;;35.10;32.74;99528.44;5072566;28;20180;-69
2022/05/31 06:51:03;;;;;;;8.90;5.20;;;;;;;35.16;32.59;99522.31;5072702;28;20228;-68
2022/05/31 06:58:58;;;;;;;5.72;4.68;;;;;;;35.11;32.18;99519.81;5051735;28;20208;-68
2022/05/31 07:01:30;;;;;;;5.53;4.45;;;;;;;35.27;32.32;99517.06;5053639;28;20193;-70
2022/05/31 07:03:58;;;;;;;7.75;5.18;;;;;;;35.47;32.14;99521.50;5053545;28;20649;-68
2022/05/31 07:06:27;;;;;;;8.00;4.57;;;;;;;35.26;32.47;99515.44;5052229;28;20196;-67
2022/05/31 07:08:53;;;;;;;5.80;4.85;;;;;;;35.53;31.35;99511.78;5052479;28;20192;-67
2022/05/31 07:11:20;;;;;;;4.70;4.30;;;;;;;35.64;31.81;99521.13;5051998;28;20631;-67
2022/05/31 07:13:47;;;;;;;7.78;4.22;;;;;;;35.62;31.80;99524.25;5050819;28;20644;-67
2022/05/31 07:16:14;;;;;;;6.50;4.90;;;;;;;35.67;31.54;99512.91;5051892;28;20261;-67
2022/05/31 07:18:41;;;;;;;6.72;5.18;;;;;;;35.78;31.40;99519.50;5052409;28;20265;-67
2022/05/31 07:21:08;;;;;;;5.85;4.50;;;;;;;35.88;31.59;99515.38;5052359;28;20250;-67
2022/05/31 07:23:36;;;;;;;9.52;4.30;;;;;;;35.91;31.16;99520.97;5050968;28;20196;-68
2022/05/31 07:26:04;;;;;;;4.85;4.38;;;;;;;35.91;30.67;99518.19;5050902;28;20228;-68
2022/05/31 07:28:31;;;;;;;13.02;5.53;;;;;;;35.19;32.86;99512.53;5051409;28;20695;-68
2022/05/31 07:30:57;;;;;;;6.82;4.93;;;;;;;34.83;33.62;99505.28;5051327;28;20847;-68
2022/05/31 07:33:24;;;;;;;5.88;4.45;;;;;;;34.71;33.53;99504.53;5050507;28;20270;-68
2022/05/31 07:35:51;;;;;;;11.63;4.57;;;;;;;34.94;33.87;99506.38;5051445;28;20615;-67
2022/05/31 07:38:19;;;;;;;11.57;4.93;;;;;;;35.16;33.01;99504.94;5052001;28;20192;-68
2022/05/31 07:40:48;;;;;;;9.05;5.22;;;;;;;35.17;32.72;99501.81;5058625;28;20659;-68
2022/05/31 07:43:15;;;;;;;6.97;4.55;;;;;;;35.31;32.79;99501.41;5072182;28;20227;-68
2022/05/31 07:45:42;;;;;;;8.60;5.18;;;;;;;35.41;32.56;99506.34;5071936;28;20196;-67
2022/05/31 07:48:10;;;;;;;14.25;5.38;;;;;;;35.24;32.77;99496.44;5070802;28;20264;-68
2022/05/31 07:50:38;;;;;;;15.50;5.30;;;;;;;35.36;32.73;99504.66;5072073;28;20588;-68
2022/05/31 07:53:05;;;;;;;4.50;4.20;;;;;;;35.46;32.48;99503.31;5071940;28;20285;-68
2022/05/31 07:55:32;;;;;;;6.15;4.93;;;;;;;35.42;32.67;99500.47;5071569;28;20663;-68
2022/05/31 08:00:44;;;;;;;6.10;4.28;;;;;;;35.38;32.52;99496.81;5071909;28;20249;-68
2022/05/31 08:03:12;;;;;;;6.85;5.00;;;;;;;35.40;33.20;99496.47;5071638;28;20667;-68
2022/05/31 08:05:39;;;;;;;7.07;5.07;;;;;;;35.22;33.19;99493.25;5071603;28;20799;-68
2022/05/31 08:08:06;;;;;;;4.93;4.40;;;;;;;35.42;32.71;99483.09;5071923;28;20622;-68
2022/05/31 08:10:33;;;;;;;7.70;4.47;;;;;;;35.49;32.40;99486.81;5071318;28;20234;-68
2022/05/31 08:13:01;;;;;;;6.78;4.38;;;;;;;35.00;33.35;99487.56;5071872;28;20200;-68
2022/05/31 08:15:28;;;;;;;4.80;4.20;;;;;;;34.91;33.51;99487.75;5071436;28;20191;-68
2022/05/31 08:17:55;;;;;;;7.57;4.75;;;;;;;34.92;33.47;99489.38;5071853;28;20239;-68
2022/05/31 08:20:22;;;;;;;13.73;5.22;;;;;;;34.92;33.41;99488.56;5071526;28;20196;-70
2022/05/31 08:22:48;;;;;;;5.50;4.88;;;;;;;34.52;33.92;99485.09;5071732;28;20192;-70
2022/05/31 08:25:17;;;;;;;10.65;4.63;;;;;;;34.44;34.20;99477.78;5071682;28;20615;-71
2022/05/31 08:27:43;;;;;;;4.65;4.25;;;;;;;34.45;34.33;99479.41;5051843;28;20257;-70
2022/05/31 08:30:12;;;;;;;5.63;5.20;;;;;;;33.86;34.89;99484.81;5082664;28;20203;-70
2022/05/31 08:32:39;;;;;;;6.03;5.25;;;;;;;34.04;34.17;99485.34;5091573;28;20248;-76
2022/05/31 08:35:12;;;;;;;11.98;4.85;;;;;;;34.08;35.27;99484.25;5089926;28;20215;-72
2022/05/31 08:37:38;;;;;;;5.72;5.18;;;;;;;34.23;34.95;99469.72;5092084;28;20655;-73
2022/05/31 08:40:06;;;;;;;9.82;5.10;;;;;;;34.38;34.70;99468.19;5082623;28;20252;-72
2022/05/31 08:42:49;;;;;;;8.93;5.20;;;;;;;34.04;35.10;99458.53;5067646;28;20238;-81
2022/05/31 08:45:28;;;;;;;8.18;5.45;;;;;;;34.03;35.17;99456.13;5070306;28;20195;-81
2022/05/31 08:48:03;;;;;;;16.50;5.82;;;;;;;33.52;34.77;99463.28;5070734;28;20238;-81
2022/05/31 08:53:26;;;;;;;8.70;4.97;;;;;;;33.99;34.59;99457.97;5070248;28;20604;-75
2022/05/31 08:58:46;;;;;;;5.50;4.93;;;;;;;34.24;34.08;99459.47;5070130;28;20188;-75
2022/05/31 09:01:19;;;;;;;7.88;5.22;;;;;;;33.39;35.99;99464.44;5070131;28;20240;-76
2022/05/31 09:03:49;;;;;;;8.82;5.47;;;;;;;33.29;36.00;99460.19;5070443;28;20261;-75
2022/05/31 09:06:22;;;;;;;5.72;5.20;;;;;;;33.21;36.09;99452.84;5070368;28;20648;-74
2022/05/31 09:08:57;;;;;;;12.90;5.73;;;;;;;33.15;36.92;99443.22;5070510;28;20249;-74
2022/05/31 09:11:28;;;;;;;13.73;5.57;;;;;;;33.53;36.89;99447.53;5070435;28;20179;-74
2022/05/31 09:14:01;;;;;;;10.47;5.60;;;;;;;33.84;35.72;99443.00;5070360;28;20208;-75
2022/05/31 09:16:41;;;;;;;9.20;5.15;;;;;;;34.16;34.98;99449.44;5070359;28;20271;-75
2022/05/31 09:19:12;;;;;;;18.38;6.57;;;;;;;34.14;35.52;99446.19;5070113;28;20241;-76
2022/05/31 09:21:42;;;;;;;6.80;4.97;;;;;;;34.20;34.84;99440.06;5070481;28;20250;-76
2022/05/31 09:24:11;;;;;;;6.10;5.50;;;;;;;34.36;35.04;99437.38;5070428;28;20333;-77
2022/05/31 09:26:52;;;;;;;6.93;5.47;;;;;;;34.53;34.48;99448.09;5070380;28;20249;-77
2022/05/31 09:29:23;;;;;;;46.17;7.80;;;;;;;34.64;34.44;99449.16;5070582;28;20273;-77
2022/05/31 09:32:02;;;;;;;9.00;4.65;;;;;;;34.38;34.46;99446.09;5070388;28;20184;-77
2022/05/31 09:34:53;;;;;;;9.23;4.75;;;;;;;34.09;33.51;99440.94;5069902;28;20760;-77
2022/05/31 09:37:33;;;;;;;35.70;23.10;;;;;;;34.06;33.84;99434.19;5070362;28;20184;-71
2022/05/31 09:40:19;;;;;;;6.80;5.50;;;;;;;33.25;36.53;99448.28;5069771;28;20271;-73
2022/05/31 09:42:58;;;;;;;20.38;6.55;;;;;;;33.35;35.48;99437.94;5050421;28;20189;-73
2022/05/31 09:45:25;;;;;;;9.90;5.95;;;;;;;33.79;34.85;99439.66;5050469;28;20185;-75
2022/05/31 09:47:54;;;;;;;15.05;6.15;;;;;;;34.00;34.27;99429.28;5047861;28;20339;-74
2022/05/31 09:50:25;;;;;;;9.68;5.65;;;;;;;33.82;33.96;99425.19;5055266;28;20228;-72
2022/05/31 09:52:56;;;;;;;7.38;5.60;;;;;;;33.70;34.63;99420.50;5090586;28;20708;-75
2022/05/31 09:58:23;;;;;;;6.37;5.37;;;;;;;33.14;35.30;99429.78;5049772;28;20671;-73
2022/05/31 10:01:02;;;;;;;16.35;5.97;;;;;;;33.42;35.15;99418.88;5049938;28;20197;-73
2022/05/31 10:03:39;;;;;;;5.43;4.80;;;;;;;33.24;35.16;99424.59;5049845;28;20218;-73
2022/05/31 10:06:18;;;;;;;6.53;4.97;;;;;;;33.44;35.44;99411.06;5046997;28;20188;-73
2022/05/31 10:08:47;;;;;;;8.18;4.63;;;;;;;34.00;33.77;99418.25;5047862;28;20718;-72
2022/05/31 10:11:16;;;;;;;6.45;5.55;;;;;;;34.29;33.85;99415.09;5049648;28;20582;-73
2022/05/31 10:13:54;;;;;;;7.90;5.25;;;;;;;34.37;32.99;99401.16;5052665;28;20285;-74
2022/05/31 10:16:26;;;;;;;5.75;5.07;;;;;;;34.09;33.37;99405.09;5052304;28;20185;-73
2022/05/31 10:18:56;;;;;;;7.63;4.60;;;;;;;34.38;33.02;99402.78;5051822;28;20189;-73
2022/05/31 10:21:33;;;;;;;14.80;5.20;;;;;;;34.68;33.25;99394.84;5051301;28;20660;-73
2022/05/31 10:24:09;;;;;;;5.72;5.13;;;;;;;34.94;32.21;99400.66;5052274;28;20188;-72
2022/05/31 10:26:40;;;;;;;11.55;4.80;;;;;;;34.52;31.90;99396.78;5050810;28;20194;-74
2022/05/31 10:29:15;;;;;;;9.65;4.80;;;;;;;34.20;33.24;99395.94;5052169;28;20192;-73
2022/05/31 10:31:45;;;;;;;6.60;4.78;;;;;;;34.15;32.45;99400.91;5049742;28;20185;-73
2022/05/31 10:34:40;;;;;;;12.85;5.55;;;;;;;33.96;33.24;99406.31;5052191;28;20274;-77
2022/05/31 10:37:25;;;;;;;7.32;4.85;;;;;;;33.79;32.71;99401.06;5050644;28;20922;-73
2022/05/31 10:40:02;;;;;;;5.57;5.07;;;;;;;33.96;33.13;99398.06;5053438;28;20184;-73
2022/05/31 10:42:30;;;;;;;7.60;4.90;;;;;;;34.13;33.67;99386.69;5050179;28;20238;-73
2022/05/31 10:45:02;;;;;;;7.18;4.53;;;;;;;34.48;31.10;99395.91;5053544;28;20246;-75
2022/05/31 10:47:29;;;;;;;9.55;5.00;;;;;;;34.60;32.06;99387.53;5052876;28;20185;-73
2022/05/31 10:49:57;;;;;;;12.38;5.60;;;;;;;34.61;32.66;99389.13;5052609;28;20290;-74
2022/05/31 10:52:32;;;;;;;8.02;4.78;;;;;;;34.74;32.15;99393.41;5052783;28;20193;-74
2022/05/31 10:55:13;;;;;;;6.75;4.55;;;;;;;34.30;31.57;99394.63;5052857;28;20274;-71
2022/05/31 10:57:54;;;;;;;8.68;4.35;;;;;;;34.49;31.25;99392.00;5053588;28;20680;-71
2022/05/31 11:00:28;;;;;;;8.90;5.72;;;;;;;34.58;31.90;99381.59;5086146;28;20430;-71
2022/05/31 11:03:16;;;;;;;6.65;4.70;;;;;;;34.60;32.29;99380.06;5092794;28;20215;-70
2022/05/31 11:05:57;;;;;;;8.32;5.07;;;;;;;34.64;33.14;99377.38;5093085;28;20187;-70
2022/05/31 11:11:30;;;;;;;7.68;5.13;;;;;;;33.06;35.12;99362.69;5065589;28;20586;-70
2022/05/31 11:14:10;;;;;;;6.63;5.03;;;;;;;33.10;34.79;99352.59;5052756;28;20223;-71
2022/05/31 11:16:48;;;;;;;5.10;4.60;;;;;;;33.35;35.28;99341.53;5053214;28;20698;-71
2022/05/31 11:19:29;;;;;;;8.45;4.63;;;;;;;33.45;34.31;99341.03;5052089;28;20196;-70
2022/05/31 11:22:09;;;;;;;5.25;4.72;;;;;;;33.32;33.78;99345.81;5051345;28;20189;-72
2022/05/31 11:24:54;;;;;;;10.90;4.45;;;;;;;32.48;34.99;99343.09;5052336;28;20189;-72
2022/05/31 11:27:37;;;;;;;6.07;4.27;;;;;;;32.61;34.48;99329.00;5052246;28;20188;-71
2022/05/31 11:30:14;;;;;;;4.37;4.00;;;;;;;32.58;33.90;99312.38;5052160;28;20847;-73
2022/05/31 11:33:00;;;;;;;7.30;3.87;;;;;;;32.68;34.55;99317.41;5051642;28;20830;-72
2022/05/31 11:35:50;;;;;;;4.50;3.70;;;;;;;32.21;34.94;99303.28;5049126;28;20247;-70
2022/05/31 11:38:23;;;;;;;5.45;4.20;;;;;;;32.33;34.89;99310.75;5050996;28;20188;-71
2022/05/31 11:41:06;;;;;;;9.80;4.40;;;;;;;32.67;35.12;99316.59;5058784;28;20184;-76
2022/05/31 11:44:17;;;;;;;11.87;4.10;;;;;;;32.71;34.66;99328.50;5070627;28;20648;-73
2022/05/31 11:46:48;;;;;;;7.43;4.10;;;;;;;33.07;33.87;99322.22;5072076;28;20195;-73
2022/05/31 11:49:27;;;;;;;4.47;4.07;;;;;;;33.08;33.94;99313.56;5073001;28;20249;-74
2022/05/31 11:52:14;;;;;;;6.33;4.13;;;;;;;32.85;33.93;99304.25;5072074;28;20192;-72
2022/05/31 11:57:59;;;;;;;5.90;3.43;;;;;;;32.38;34.39;99322.34;5068918;28;20192;-72
2022/05/31 12:00:30;;;;;;;4.00;3.70;;;;;;;32.31;34.91;99313.88;5069055;28;20203;-73
2022/05/31 12:03:08;;;;;;;9.67;4.47;;;;;;;32.67;34.07;99327.59;5050222;28;20184;-72
2022/05/31 12:05:43;;;;;;;3.83;3.53;;;;;;;32.65;34.05;99334.59;5049812;28;20192;-72
2022/05/31 12:08:13;;;;;;;5.03;3.20;;;;;;;32.62;33.53;99330.59;5086310;28;20234;-72
2022/05/31 12:10:45;;;;;;;8.77;4.07;;;;;;;32.95;34.07;99334.03;5077931;28;20634;-74
2022/05/31 12:13:15;;;;;;;4.10;3.70;;;;;;;32.62;34.73;99329.81;5092821;28;20647;-65
2022/05/31 12:15:44;;;;;;;6.53;3.57;;;;;;;32.42;35.41;99328.75;5080273;28;20252;-66
2022/05/31 12:18:30;;;;;;;5.20;4.13;;;;;;;32.13;35.67;99331.69;5053371;28;20193;-66